sensor_id;sensor_type;location;lat;lon;timestamp;pressure;altitude;pressure_sealevel;temperature;humidity
28167;BME280;15455;53.376;-6.262;2023-03-20T00:00:29;100969.78;;;10.04;100.00
28167;BME280;15455;53.376;-6.262;2023-03-20T00:03:16;100967.19;;;10.06;100.00
28167;BME280;15455;53.376;-6.262;2023-03-20T00:06:02;100968.94;;;10.08;100.00
28167;BME280;15455;53.376;-6.262;2023-03-20T00:08:49;100958.50;;;10.10;100.00
28167;BME280;15455;53.376;-6.262;2023-03-20T00:11:40;100970.69;;;10.14;100.00
28167;BME280;15455;53.376;-6.262;2023-03-20T00:14:28;100967.19;;;10.15;100.00
28167;BME280;15455;53.376;-6.262;2023-03-20T00:17:17;100961.97;;;10.15;100.00
28167;BME280;15455;53.376;-6.262;2023-03-20T00:20:04;100959.41;;;10.18;100.00
28167;BME280;15455;53.376;-6.262;2023-03-20T00:22:50;100959.41;;;10.20;100.00
28167;BME280;15455;53.376;-6.262;2023-03-20T00:25:37;100961.13;;;10.24;100.00
28167;BME280;15455;53.376;-6.262;2023-03-20T00:28:43;100968.09;;;10.30;100.00
28167;BME280;15455;53.376;-6.262;2023-03-20T00:31:37;100965.50;;;10.31;100.00
28167;BME280;15455;53.376;-6.262;2023-03-20T00:34:26;100968.16;;;10.36;100.00
28167;BME280;15455;53.376;-6.262;2023-03-20T00:37:13;100975.16;;;10.43;100.00
28167;BME280;15455;53.376;-6.262;2023-03-20T00:39:58;100962.09;;;10.43;100.00
28167;BME280;15455;53.376;-6.262;2023-03-20T00:42:58;100958.59;;;10.44;100.00
28167;BME280;15455;53.376;-6.262;2023-03-20T00:45:46;100963.81;;;10.44;100.00
28167;BME280;15455;53.376;-6.262;2023-03-20T00:48:32;100955.97;;;10.42;100.00
28167;BME280;15455;53.376;-6.262;2023-03-20T00:51:18;100946.44;;;10.41;100.00
28167;BME280;15455;53.376;-6.262;2023-03-20T00:54:15;100947.31;;;10.39;100.00
28167;BME280;15455;53.376;-6.262;2023-03-20T00:57:04;100949.91;;;10.37;100.00
28167;BME280;15455;53.376;-6.262;2023-03-20T00:59:55;100942.94;;;10.38;100.00
28167;BME280;15455;53.376;-6.262;2023-03-20T01:02:41;100930.75;;;10.35;100.00
28167;BME280;15455;53.376;-6.262;2023-03-20T01:05:27;100938.59;;;10.34;100.00
28167;BME280;15455;53.376;-6.262;2023-03-20T01:08:20;100933.34;;;10.32;100.00
28167;BME280;15455;53.376;-6.262;2023-03-20T01:11:09;100928.97;;;10.30;100.00
28167;BME280;15455;53.376;-6.262;2023-03-20T01:13:58;100938.56;;;10.31;100.00
28167;BME280;15455;53.376;-6.262;2023-03-20T01:16:44;100940.31;;;10.32;100.00
28167;BME280;15455;53.376;-6.262;2023-03-20T01:19:30;100942.09;;;10.34;100.00
28167;BME280;15455;53.376;-6.262;2023-03-20T01:22:15;100935.97;;;10.34;100.00
28167;BME280;15455;53.376;-6.262;2023-03-20T01:25:04;100940.31;;;10.33;100.00
28167;BME280;15455;53.376;-6.262;2023-03-20T01:27:51;100936.81;;;10.30;100.00
28167;BME280;15455;53.376;-6.262;2023-03-20T01:30:38;100938.56;;;10.32;100.00
28167;BME280;15455;53.376;-6.262;2023-03-20T01:33:23;100936.88;;;10.34;100.00
28167;BME280;15455;53.376;-6.262;2023-03-20T01:36:14;100934.25;;;10.37;100.00
28167;BME280;15455;53.376;-6.262;2023-03-20T01:39:01;100931.66;;;10.36;100.00
28167;BME280;15455;53.376;-6.262;2023-03-20T01:41:47;100922.06;;;10.36;100.00
28167;BME280;15455;53.376;-6.262;2023-03-20T01:44:34;100912.50;;;10.34;100.00
28167;BME280;15455;53.376;-6.262;2023-03-20T01:47:23;100916.84;;;10.36;100.00
28167;BME280;15455;53.376;-6.262;2023-03-20T01:53:24;100915.13;;;10.41;100.00
28167;BME280;15455;53.376;-6.262;2023-03-20T01:56:16;100919.47;;;10.42;100.00
28167;BME280;15455;53.376;-6.262;2023-03-20T02:02:29;100916.00;;;10.43;100.00
28167;BME280;15455;53.376;-6.262;2023-03-20T02:05:18;100909.91;;;10.46;100.00
28167;BME280;15455;53.376;-6.262;2023-03-20T02:08:14;100908.16;;;10.45;100.00
28167;BME280;15455;53.376;-6.262;2023-03-20T02:11:03;100911.66;;;10.49;100.00
28167;BME280;15455;53.376;-6.262;2023-03-20T02:13:51;100908.16;;;10.47;100.00
28167;BME280;15455;53.376;-6.262;2023-03-20T02:16:39;100910.78;;;10.47;100.00
28167;BME280;15455;53.376;-6.262;2023-03-20T02:19:57;100909.06;;;10.49;100.00
28167;BME280;15455;53.376;-6.262;2023-03-20T02:23:00;100904.69;;;10.51;100.00
28167;BME280;15455;53.376;-6.262;2023-03-20T02:36:21;100899.47;;;10.57;100.00
28167;BME280;15455;53.376;-6.262;2023-03-20T02:42:39;100893.38;;;10.58;100.00
28167;BME280;15455;53.376;-6.262;2023-03-20T02:45:34;100893.38;;;10.61;100.00
28167;BME280;15455;53.376;-6.262;2023-03-20T02:48:50;100891.63;;;10.60;100.00
28167;BME280;15455;53.376;-6.262;2023-03-20T02:51:46;100883.78;;;10.58;100.00
28167;BME280;15455;53.376;-6.262;2023-03-20T02:55:08;100881.19;;;10.60;100.00
28167;BME280;15455;53.376;-6.262;2023-03-20T03:04:17;100875.09;;;10.63;100.00
28167;BME280;15455;53.376;-6.262;2023-03-20T03:07:09;100877.72;;;10.61;100.00
28167;BME280;15455;53.376;-6.262;2023-03-20T03:10:07;100874.25;;;10.59;100.00
28167;BME280;15455;53.376;-6.262;2023-03-20T03:12:57;100863.81;;;10.56;100.00
28167;BME280;15455;53.376;-6.262;2023-03-20T03:15:48;100861.19;;;10.53;100.00
28167;BME280;15455;53.376;-6.262;2023-03-20T03:18:37;100856.84;;;10.50;100.00
28167;BME280;15455;53.376;-6.262;2023-03-20T03:21:25;100855.13;;;10.46;100.00
28167;BME280;15455;53.376;-6.262;2023-03-20T03:24:27;100857.72;;;10.46;100.00
28167;BME280;15455;53.376;-6.262;2023-03-20T03:27:30;100856.84;;;10.44;100.00
28167;BME280;15455;53.376;-6.262;2023-03-20T03:30:24;100855.13;;;10.45;100.00
28167;BME280;15455;53.376;-6.262;2023-03-20T03:33:19;100847.28;;;10.43;100.00
28167;BME280;15455;53.376;-6.262;2023-03-20T03:39:11;100849.91;;;10.45;100.00
28167;BME280;15455;53.376;-6.262;2023-03-20T03:42:12;100855.97;;;10.45;100.00
28167;BME280;15455;53.376;-6.262;2023-03-20T03:48:05;100864.66;;;10.44;100.00
28167;BME280;15455;53.376;-6.262;2023-03-20T03:50:54;100869.03;;;10.43;100.00
28167;BME280;15455;53.376;-6.262;2023-03-20T03:53:46;100862.06;;;10.41;100.00
28167;BME280;15455;53.376;-6.262;2023-03-20T03:56:35;100871.63;;;10.43;100.00
28167;BME280;15455;53.376;-6.262;2023-03-20T03:59:31;100876.00;;;10.45;100.00
28167;BME280;15455;53.376;-6.262;2023-03-20T04:02:21;100875.13;;;10.49;100.00
28167;BME280;15455;53.376;-6.262;2023-03-20T04:05:08;100872.50;;;10.50;100.00
28167;BME280;15455;53.376;-6.262;2023-03-20T04:07:57;100864.69;;;10.52;100.00
28167;BME280;15455;53.376;-6.262;2023-03-20T04:10:43;100866.41;;;10.51;100.00
28167;BME280;15455;53.376;-6.262;2023-03-20T04:13:28;100862.94;;;10.55;100.00
28167;BME280;15455;53.376;-6.262;2023-03-20T04:16:15;100862.06;;;10.52;100.00
28167;BME280;15455;53.376;-6.262;2023-03-20T04:19:02;100851.63;;;10.53;100.00
28167;BME280;15455;53.376;-6.262;2023-03-20T04:21:47;100855.97;;;10.51;100.00
28167;BME280;15455;53.376;-6.262;2023-03-20T04:24:32;100865.53;;;10.51;100.00
28167;BME280;15455;53.376;-6.262;2023-03-20T04:27:18;100859.47;;;10.50;100.00
28167;BME280;15455;53.376;-6.262;2023-03-20T04:30:04;100865.53;;;10.51;100.00
28167;BME280;15455;53.376;-6.262;2023-03-20T04:33:09;100868.16;;;10.52;100.00
28167;BME280;15455;53.376;-6.262;2023-03-20T04:36:24;100865.53;;;10.52;100.00
28167;BME280;15455;53.376;-6.262;2023-03-20T04:39:11;100871.63;;;10.51;100.00
28167;BME280;15455;53.376;-6.262;2023-03-20T04:41:57;100861.19;;;10.48;100.00
28167;BME280;15455;53.376;-6.262;2023-03-20T04:44:42;100860.34;;;10.46;100.00
28167;BME280;15455;53.376;-6.262;2023-03-20T04:47:27;100855.97;;;10.47;100.00
28167;BME280;15455;53.376;-6.262;2023-03-20T04:50:13;100858.59;;;10.47;100.00
28167;BME280;15455;53.376;-6.262;2023-03-20T04:52:59;100860.34;;;10.46;100.00
28167;BME280;15455;53.376;-6.262;2023-03-20T04:55:46;100865.56;;;10.46;100.00
28167;BME280;15455;53.376;-6.262;2023-03-20T04:58:32;100858.59;;;10.48;100.00
28167;BME280;15455;53.376;-6.262;2023-03-20T05:01:20;100867.28;;;10.49;100.00
28167;BME280;15455;53.376;-6.262;2023-03-20T05:04:07;100869.03;;;10.47;100.00
28167;BME280;15455;53.376;-6.262;2023-03-20T05:06:54;100861.19;;;10.45;100.00
28167;BME280;15455;53.376;-6.262;2023-03-20T05:09:46;100862.94;;;10.43;100.00
28167;BME280;15455;53.376;-6.262;2023-03-20T05:12:32;100864.66;;;10.39;100.00
28167;BME280;15455;53.376;-6.262;2023-03-20T05:15:44;100866.44;;;10.36;100.00
28167;BME280;15455;53.376;-6.262;2023-03-20T05:18:42;100874.25;;;10.37;100.00
28167;BME280;15455;53.376;-6.262;2023-03-20T05:21:54;100867.28;;;10.35;100.00
28167;BME280;15455;53.376;-6.262;2023-03-20T05:24:49;100869.88;;;10.30;100.00
28167;BME280;15455;53.376;-6.262;2023-03-20T05:27:53;100855.94;;;10.23;100.00
28167;BME280;15455;53.376;-6.262;2023-03-20T05:31:05;100855.94;;;10.17;100.00
28167;BME280;15455;53.376;-6.262;2023-03-20T05:34:14;100861.16;;;10.14;100.00
28167;BME280;15455;53.376;-6.262;2023-03-20T05:37:17;100862.88;;;10.11;100.00
28167;BME280;15455;53.376;-6.262;2023-03-20T05:40:23;100868.94;;;10.09;100.00
28167;BME280;15455;53.376;-6.262;2023-03-20T05:43:35;100874.16;;;10.09;100.00
28167;BME280;15455;53.376;-6.262;2023-03-20T05:46:37;100874.19;;;10.13;100.00
28167;BME280;15455;53.376;-6.262;2023-03-20T05:49:55;100882.03;;;10.11;100.00
28167;BME280;15455;53.376;-6.262;2023-03-20T05:52:59;100876.78;;;10.09;100.00
28167;BME280;15455;53.376;-6.262;2023-03-20T05:55:56;100877.66;;;10.08;100.00
28167;BME280;15455;53.376;-6.262;2023-03-20T05:59:04;100875.91;;;10.07;100.00
28167;BME280;15455;53.376;-6.262;2023-03-20T06:01:56;100873.31;;;10.07;100.00
28167;BME280;15455;53.376;-6.262;2023-03-20T06:04:45;100868.09;;;10.06;100.00
28167;BME280;15455;53.376;-6.262;2023-03-20T06:07:57;100870.69;;;10.04;100.00
28167;BME280;15455;53.376;-6.262;2023-03-20T06:10:43;100863.72;;;10.02;100.00
28167;BME280;15455;53.376;-6.262;2023-03-20T06:13:28;100866.34;;;9.99;100.00
28167;BME280;15455;53.376;-6.262;2023-03-20T06:16:13;100862.84;;;9.94;100.00
28167;BME280;15455;53.376;-6.262;2023-03-20T06:18:59;100863.72;;;9.88;100.00
28167;BME280;15455;53.376;-6.262;2023-03-20T06:21:45;100863.69;;;9.86;100.00
28167;BME280;15455;53.376;-6.262;2023-03-20T06:24:34;100867.19;;;9.85;100.00
28167;BME280;15455;53.376;-6.262;2023-03-20T06:27:21;100868.03;;;9.83;100.00
28167;BME280;15455;53.376;-6.262;2023-03-20T06:30:07;100871.50;;;9.80;100.00
28167;BME280;15455;53.376;-6.262;2023-03-20T06:32:54;100881.06;;;9.77;100.00
28167;BME280;15455;53.376;-6.262;2023-03-20T06:35:47;100875.84;;;9.75;100.00
28167;BME280;15455;53.376;-6.262;2023-03-20T06:38:33;100878.41;;;9.72;100.00
28167;BME280;15455;53.376;-6.262;2023-03-20T06:41:24;100876.72;;;9.71;100.00
28167;BME280;15455;53.376;-6.262;2023-03-20T06:44:22;100877.56;;;9.70;100.00
28167;BME280;15455;53.376;-6.262;2023-03-20T06:47:26;100878.41;;;9.66;100.00
28167;BME280;15455;53.376;-6.262;2023-03-20T06:50:14;100880.16;;;9.64;100.00
28167;BME280;15455;53.376;-6.262;2023-03-20T06:53:00;100886.22;;;9.64;100.00
28167;BME280;15455;53.376;-6.262;2023-03-20T06:56:08;100889.69;;;9.62;100.00
28167;BME280;15455;53.376;-6.262;2023-03-20T06:58:57;100897.50;;;9.59;100.00
28167;BME280;15455;53.376;-6.262;2023-03-20T07:01:45;100907.06;;;9.56;100.00
28167;BME280;15455;53.376;-6.262;2023-03-20T07:04:31;100907.03;;;9.53;100.00
28167;BME280;15455;53.376;-6.262;2023-03-20T07:07:19;100913.97;;;9.51;100.00
28167;BME280;15455;53.376;-6.262;2023-03-20T07:10:05;100911.34;;;9.51;100.00
28167;BME280;15455;53.376;-6.262;2023-03-20T07:12:51;100916.56;;;9.53;100.00
28167;BME280;15455;53.376;-6.262;2023-03-20T07:15:37;100918.34;;;9.55;100.00
28167;BME280;15455;53.376;-6.262;2023-03-20T07:18:24;100922.69;;;9.61;100.00
28167;BME280;15455;53.376;-6.262;2023-03-20T07:21:10;100928.81;;;9.69;100.00
28167;BME280;15455;53.376;-6.262;2023-03-20T07:24:01;100914.06;;;9.71;100.00
28167;BME280;15455;53.376;-6.262;2023-03-20T07:26:48;100927.09;;;9.76;100.00
28167;BME280;15455;53.376;-6.262;2023-03-20T07:29:33;100931.44;;;9.79;100.00
28167;BME280;15455;53.376;-6.262;2023-03-20T07:32:22;100931.47;;;9.83;100.00
28167;BME280;15455;53.376;-6.262;2023-03-20T07:35:09;100927.16;;;9.85;100.00
28167;BME280;15455;53.376;-6.262;2023-03-20T07:37:58;100937.59;;;9.91;100.00
28167;BME280;15455;53.376;-6.262;2023-03-20T07:40:44;100931.53;;;9.94;100.00
28167;BME280;15455;53.376;-6.262;2023-03-20T07:43:33;100921.94;;;9.99;100.00
28167;BME280;15455;53.376;-6.262;2023-03-20T07:46:50;100916.75;;;10.02;100.00
28167;BME280;15455;53.376;-6.262;2023-03-20T07:49:38;100924.59;;;10.08;100.00
28167;BME280;15455;53.376;-6.262;2023-03-20T07:52:25;100927.22;;;10.15;100.00
28167;BME280;15455;53.376;-6.262;2023-03-20T07:55:11;100924.59;;;10.18;100.00
28167;BME280;15455;53.376;-6.262;2023-03-20T07:57:56;100928.97;;;10.22;100.00
28167;BME280;15455;53.376;-6.262;2023-03-20T08:00:43;100924.66;;;10.27;100.00
28167;BME280;15455;53.376;-6.262;2023-03-20T08:03:28;100933.34;;;10.32;100.00
28167;BME280;15455;53.376;-6.262;2023-03-20T08:06:14;100940.34;;;10.39;100.00
28167;BME280;15455;53.376;-6.262;2023-03-20T08:09:00;100941.22;;;10.46;100.00
28167;BME280;15455;53.376;-6.262;2023-03-20T08:11:46;100954.25;;;10.54;100.00
28167;BME280;15455;53.376;-6.262;2023-03-20T08:14:31;100949.03;;;10.60;100.00
28167;BME280;15455;53.376;-6.262;2023-03-20T08:17:18;100941.25;;;10.63;100.00
28167;BME280;15455;53.376;-6.262;2023-03-20T08:20:06;100939.47;;;10.70;100.00
28167;BME280;15455;53.376;-6.262;2023-03-20T08:22:52;100934.25;;;10.76;100.00
28167;BME280;15455;53.376;-6.262;2023-03-20T08:25:37;100926.44;;;10.84;100.00
28167;BME280;15455;53.376;-6.262;2023-03-20T08:28:23;100922.09;;;10.92;100.00
28167;BME280;15455;53.376;-6.262;2023-03-20T08:31:28;100922.94;;;10.99;100.00
28167;BME280;15455;53.376;-6.262;2023-03-20T08:34:15;100921.19;;;11.05;100.00
28167;BME280;15455;53.376;-6.262;2023-03-20T08:37:05;100911.59;;;11.10;100.00
28167;BME280;15455;53.376;-6.262;2023-03-20T08:39:52;100920.31;;;11.16;100.00
28167;BME280;15455;53.376;-6.262;2023-03-20T08:42:37;100915.91;;;11.21;100.00
28167;BME280;15455;53.376;-6.262;2023-03-20T08:45:23;100916.78;;;11.26;100.00
28167;BME280;15455;53.376;-6.262;2023-03-20T08:48:10;100911.56;;;11.27;100.00
28167;BME280;15455;53.376;-6.262;2023-03-20T08:50:56;100914.16;;;11.37;100.00
28167;BME280;15455;53.376;-6.262;2023-03-20T08:53:41;100912.38;;;11.45;100.00
28167;BME280;15455;53.376;-6.262;2023-03-20T08:56:26;100910.59;;;11.55;100.00
28167;BME280;15455;53.376;-6.262;2023-03-20T08:59:12;100901.00;;;11.63;100.00
28167;BME280;15455;53.376;-6.262;2023-03-20T09:01:57;100901.81;;;11.70;100.00
28167;BME280;15455;53.376;-6.262;2023-03-20T09:04:43;100906.13;;;11.77;100.00
28167;BME280;15455;53.376;-6.262;2023-03-20T09:07:28;100906.97;;;11.84;100.00
28167;BME280;15455;53.376;-6.262;2023-03-20T09:10:13;100885.22;;;11.77;100.00
28167;BME280;15455;53.376;-6.262;2023-03-20T09:13:00;100888.72;;;11.76;100.00
28167;BME280;15455;53.376;-6.262;2023-03-20T09:15:59;100891.28;;;11.84;100.00
28167;BME280;15455;53.376;-6.262;2023-03-20T09:18:45;100878.19;;;11.87;100.00
28167;BME280;15455;53.376;-6.262;2023-03-20T09:21:31;100874.72;;;11.86;100.00
28167;BME280;15455;53.376;-6.262;2023-03-20T09:24:16;100870.31;;;11.94;100.00
28167;BME280;15455;53.376;-6.262;2023-03-20T09:27:01;100870.25;;;12.07;100.00
28167;BME280;15455;53.376;-6.262;2023-03-20T09:29:48;100871.00;;;12.24;100.00
28167;BME280;15455;53.376;-6.262;2023-03-20T09:32:34;100873.53;;;12.38;100.00
28167;BME280;15455;53.376;-6.262;2023-03-20T09:35:20;100869.94;;;12.48;100.00
28167;BME280;15455;53.376;-6.262;2023-03-20T09:38:06;100864.69;;;12.50;100.00
28167;BME280;15455;53.376;-6.262;2023-03-20T09:41:00;100860.38;;;12.46;100.00
28167;BME280;15455;53.376;-6.262;2023-03-20T09:50:37;100863.66;;;12.71;100.00
28167;BME280;15455;53.376;-6.262;2023-03-20T09:56:45;100859.16;;;12.82;100.00
28167;BME280;15455;53.376;-6.262;2023-03-20T09:59:33;100863.47;;;12.86;100.00
28167;BME280;15455;53.376;-6.262;2023-03-20T10:02:29;100871.28;;;12.94;100.00
28167;BME280;15455;53.376;-6.262;2023-03-20T10:05:42;100863.34;;;13.00;100.00
28167;BME280;15455;53.376;-6.262;2023-03-20T10:08:34;100858.03;;;13.07;100.00
28167;BME280;15455;53.376;-6.262;2023-03-20T10:15:11;100848.22;;;13.24;100.00
28167;BME280;15455;53.376;-6.262;2023-03-20T10:18:24;100849.09;;;13.26;100.00
28167;BME280;15455;53.376;-6.262;2023-03-20T10:21:22;100848.19;;;13.30;100.00
28167;BME280;15455;53.376;-6.262;2023-03-20T10:24:17;100848.09;;;13.38;100.00
28167;BME280;15455;53.376;-6.262;2023-03-20T10:27:16;100852.47;;;13.39;100.00
28167;BME280;15455;53.376;-6.262;2023-03-20T10:33:50;100847.03;;;13.51;100.00
28167;BME280;15455;53.376;-6.262;2023-03-20T10:42:44;100824.84;;;13.77;100.00
28167;BME280;15455;53.376;-6.262;2023-03-20T10:45:37;100829.94;;;13.86;100.00
28167;BME280;15455;53.376;-6.262;2023-03-20T10:52:21;100811.22;;;14.10;100.00
28167;BME280;15455;53.376;-6.262;2023-03-20T10:54:51;100811.88;;;14.22;100.00
28167;BME280;15455;53.376;-6.262;2023-03-20T10:57:44;100812.69;;;14.28;100.00
28167;BME280;15455;53.376;-6.262;2023-03-20T11:00:32;100808.31;;;14.27;100.00
28167;BME280;15455;53.376;-6.262;2023-03-20T11:03:24;100811.00;;;14.23;100.00
28167;BME280;15455;53.376;-6.262;2023-03-20T11:06:21;100811.84;;;14.25;100.00
28167;BME280;15455;53.376;-6.262;2023-03-20T11:09:17;100805.72;;;14.25;100.00
28167;BME280;15455;53.376;-6.262;2023-03-20T11:12:03;100792.81;;;14.14;100.00
28167;BME280;15455;53.376;-6.262;2023-03-20T11:14:56;100792.81;;;14.14;100.00
28167;BME280;15455;53.376;-6.262;2023-03-20T11:17:50;100795.38;;;14.17;100.00
28167;BME280;15455;53.376;-6.262;2023-03-20T11:20:38;100795.44;;;14.14;100.00
28167;BME280;15455;53.376;-6.262;2023-03-20T11:23:31;100785.69;;;14.19;100.00
28167;BME280;15455;53.376;-6.262;2023-03-20T11:26:31;100787.41;;;14.22;100.00
28167;BME280;15455;53.376;-6.262;2023-03-20T11:29:29;100788.81;;;14.43;100.00
28167;BME280;15455;53.376;-6.262;2023-03-20T11:38:15;100771.66;;;14.73;100.00
28167;BME280;15455;53.376;-6.262;2023-03-20T11:41:03;100766.72;;;14.55;100.00
28167;BME280;15455;53.376;-6.262;2023-03-20T11:43:49;100776.53;;;14.44;100.00
28167;BME280;15455;53.376;-6.262;2023-03-20T11:46:35;100767.69;;;14.49;100.00
28167;BME280;15455;53.376;-6.262;2023-03-20T11:49:22;100763.13;;;14.59;100.00
28167;BME280;15455;53.376;-6.262;2023-03-20T11:52:19;100758.59;;;14.67;100.00
28167;BME280;15455;53.376;-6.262;2023-03-20T11:55:28;100765.44;;;14.76;100.00
28167;BME280;15455;53.376;-6.262;2023-03-20T11:58:15;100760.88;;;14.86;100.00
28167;BME280;15455;53.376;-6.262;2023-03-20T12:01:02;100756.38;;;14.92;100.00
28167;BME280;15455;53.376;-6.262;2023-03-20T12:03:59;100749.38;;;14.91;100.00
28167;BME280;15455;53.376;-6.262;2023-03-20T12:06:51;100744.78;;;15.03;100.00
28167;BME280;15455;53.376;-6.262;2023-03-20T12:12:49;100722.38;;;15.25;100.00
28167;BME280;15455;53.376;-6.262;2023-03-20T12:15:39;100720.84;;;15.17;100.00
28167;BME280;15455;53.376;-6.262;2023-03-20T12:18:30;100713.97;;;15.09;100.00
28167;BME280;15455;53.376;-6.262;2023-03-20T12:27:29;100718.72;;;15.33;100.00
28167;BME280;15455;53.376;-6.262;2023-03-20T12:33:49;100718.75;;;15.29;100.00
28167;BME280;15455;53.376;-6.262;2023-03-20T12:36:40;100722.16;;;15.35;100.00
28167;BME280;15455;53.376;-6.262;2023-03-20T12:39:35;100716.91;;;15.35;100.00
28167;BME280;15455;53.376;-6.262;2023-03-20T12:42:58;100709.69;;;15.44;100.00
28167;BME280;15455;53.376;-6.262;2023-03-20T12:48:43;100713.34;;;15.37;100.00
28167;BME280;15455;53.376;-6.262;2023-03-20T12:51:41;100707.88;;;15.46;100.00
28167;BME280;15455;53.376;-6.262;2023-03-20T12:57:37;100694.47;;;15.95;100.00
28167;BME280;15455;53.376;-6.262;2023-03-20T13:00:40;100692.13;;;16.17;100.00
28167;BME280;15455;53.376;-6.262;2023-03-20T13:07:02;100680.59;;;16.54;100.00
28167;BME280;15455;53.376;-6.262;2023-03-20T13:19:11;100669.75;;;16.01;100.00
28167;BME280;15455;53.376;-6.262;2023-03-20T13:34:31;100647.13;;;16.26;100.00
28167;BME280;15455;53.376;-6.262;2023-03-20T13:37:36;100651.81;;;16.15;100.00
28167;BME280;15455;53.376;-6.262;2023-03-20T13:40:31;100635.63;;;15.97;100.00
28167;BME280;15455;53.376;-6.262;2023-03-20T13:46:22;100635.28;;;15.74;100.00
28167;BME280;15455;53.376;-6.262;2023-03-20T13:49:17;100632.00;;;15.66;100.00
28167;BME280;15455;53.376;-6.262;2023-03-20T13:55:23;100613.75;;;15.59;100.00
28167;BME280;15455;53.376;-6.262;2023-03-20T14:04:50;100597.88;;;15.26;100.00
28167;BME280;15455;53.376;-6.262;2023-03-20T14:07:38;100593.50;;;15.27;100.00
28167;BME280;15455;53.376;-6.262;2023-03-20T14:10:34;100600.22;;;15.39;100.00
28167;BME280;15455;53.376;-6.262;2023-03-20T14:13:21;100592.53;;;15.31;100.00
28167;BME280;15455;53.376;-6.262;2023-03-20T14:16:09;100587.28;;;15.31;100.00
28167;BME280;15455;53.376;-6.262;2023-03-20T14:19:16;100574.78;;;15.39;100.00
28167;BME280;15455;53.376;-6.262;2023-03-20T14:22:02;100579.00;;;15.46;100.00
28167;BME280;15455;53.376;-6.262;2023-03-20T14:25:12;100575.13;;;15.61;100.00
28167;BME280;15455;53.376;-6.262;2023-03-20T14:37:04;100564.72;;;15.55;100.00
28167;BME280;15455;53.376;-6.262;2023-03-20T14:39:53;100558.97;;;15.41;100.00
28167;BME280;15455;53.376;-6.262;2023-03-20T14:43:26;100548.66;;;15.33;100.00
28167;BME280;15455;53.376;-6.262;2023-03-20T14:53:08;100549.50;;;14.98;100.00
28167;BME280;15455;53.376;-6.262;2023-03-20T14:56:09;100549.69;;;14.90;100.00
28167;BME280;15455;53.376;-6.262;2023-03-20T14:58:59;100546.41;;;14.80;100.00
28167;BME280;15455;53.376;-6.262;2023-03-20T15:01:52;100541.41;;;14.71;100.00
28167;BME280;15455;53.376;-6.262;2023-03-20T15:04:42;100550.00;;;14.76;100.00
28167;BME280;15455;53.376;-6.262;2023-03-20T15:07:29;100548.84;;;14.89;100.00
28167;BME280;15455;53.376;-6.262;2023-03-20T15:10:15;100551.16;;;15.02;100.00
28167;BME280;15455;53.376;-6.262;2023-03-20T15:13:05;100546.63;;;15.08;100.00
28167;BME280;15455;53.376;-6.262;2023-03-20T15:21:37;100536.31;;;15.01;100.00
28167;BME280;15455;53.376;-6.262;2023-03-20T15:24:24;100532.91;;;14.97;100.00
28167;BME280;15455;53.376;-6.262;2023-03-20T15:27:12;100535.47;;;14.99;100.00
28167;BME280;15455;53.376;-6.262;2023-03-20T15:29:59;100518.00;;;14.96;100.00
28167;BME280;15455;53.376;-6.262;2023-03-20T15:32:48;100525.81;;;14.99;100.00
28167;BME280;15455;53.376;-6.262;2023-03-20T15:35:34;100526.88;;;14.93;100.00
28167;BME280;15455;53.376;-6.262;2023-03-20T15:38:20;100520.72;;;14.93;100.00
28167;BME280;15455;53.376;-6.262;2023-03-20T15:41:07;100516.41;;;14.90;100.00
28167;BME280;15455;53.376;-6.262;2023-03-20T15:43:53;100521.72;;;14.87;100.00
28167;BME280;15455;53.376;-6.262;2023-03-20T15:46:39;100516.66;;;14.80;100.00
28167;BME280;15455;53.376;-6.262;2023-03-20T15:49:25;100515.06;;;14.74;100.00
28167;BME280;15455;53.376;-6.262;2023-03-20T15:54:59;100517.94;;;14.63;100.00
28167;BME280;15455;53.376;-6.262;2023-03-20T15:57:47;100510.97;;;14.61;100.00
28167;BME280;15455;53.376;-6.262;2023-03-20T16:00:40;100502.19;;;14.62;100.00
28167;BME280;15455;53.376;-6.262;2023-03-20T16:03:27;100503.97;;;14.59;100.00
28167;BME280;15455;53.376;-6.262;2023-03-20T16:06:20;100489.06;;;14.60;100.00
28167;BME280;15455;53.376;-6.262;2023-03-20T16:09:06;100495.16;;;14.64;100.00
28167;BME280;15455;53.376;-6.262;2023-03-20T16:12:00;100490.78;;;14.61;100.00
28167;BME280;15455;53.376;-6.262;2023-03-20T16:14:47;100482.13;;;14.57;100.00
28167;BME280;15455;53.376;-6.262;2023-03-20T16:17:34;100481.28;;;14.55;100.00
28167;BME280;15455;53.376;-6.262;2023-03-20T16:20:20;100481.53;;;14.46;100.00
28167;BME280;15455;53.376;-6.262;2023-03-20T16:23:08;100486.78;;;14.46;100.00
28167;BME280;15455;53.376;-6.262;2023-03-20T16:25:57;100486.00;;;14.41;100.00
28167;BME280;15455;53.376;-6.262;2023-03-20T16:28:49;100477.50;;;14.30;100.00
28167;BME280;15455;53.376;-6.262;2023-03-20T16:31:41;100484.78;;;14.18;100.00
28167;BME280;15455;53.376;-6.262;2023-03-20T16:34:32;100459.63;;;14.06;100.00
28167;BME280;15455;53.376;-6.262;2023-03-20T16:37:28;100463.31;;;13.98;100.00
28167;BME280;15455;53.376;-6.262;2023-03-20T16:43:16;100453.97;;;13.84;100.00
28167;BME280;15455;53.376;-6.262;2023-03-20T16:46:04;100457.50;;;13.83;100.00
28167;BME280;15455;53.376;-6.262;2023-03-20T16:48:52;100447.91;;;13.81;100.00
28167;BME280;15455;53.376;-6.262;2023-03-20T16:51:42;100445.41;;;13.76;100.00
28167;BME280;15455;53.376;-6.262;2023-03-20T16:54:30;100442.84;;;13.73;100.00
28167;BME280;15455;53.376;-6.262;2023-03-20T16:57:18;100443.78;;;13.69;100.00
28167;BME280;15455;53.376;-6.262;2023-03-20T17:00:23;100443.84;;;13.66;100.00
28167;BME280;15455;53.376;-6.262;2023-03-20T17:03:25;100440.47;;;13.61;100.00